sensor_id;sensor_type;location;lat;lon;timestamp;P1;durP1;ratioP1;P2;durP2;ratioP2
69917;SDS011;57203;42.672;23.334;2024-03-22T00:00:25;15.4;;;9.1;;
69917;SDS011;57203;42.672;23.334;2024-03-22T00:01:25;15.4;;;10.8;;
69917;SDS011;57203;42.672;23.334;2024-03-22T00:02:25;23.0;;;11.9;;
69917;SDS011;57203;42.672;23.334;2024-03-22T00:03:25;22.7;;;12.3;;
69917;SDS011;57203;42.672;23.334;2024-03-22T00:04:25;21.1;;;11.8;;
69917;SDS011;57203;42.672;23.334;2024-03-22T00:05:25;21.1;;;13.0;;
69917;SDS011;57203;42.672;23.334;2024-03-22T00:06:26;26.8;;;13.4;;
69917;SDS011;57203;42.672;23.334;2024-03-22T00:07:26;25.2;;;13.7;;
69917;SDS011;57203;42.672;23.334;2024-03-22T00:08:26;25.2;;;12.5;;
69917;SDS011;57203;42.672;23.334;2024-03-22T00:09:26;24.6;;;12.6;;
69917;SDS011;57203;42.672;23.334;2024-03-22T00:10:26;24.2;;;13.1;;
69917;SDS011;57203;42.672;23.334;2024-03-22T00:11:26;23.8;;;13.0;;
69917;SDS011;57203;42.672;23.334;2024-03-22T00:13:27;26.9;;;13.2;;
69917;SDS011;57203;42.672;23.334;2024-03-22T00:14:27;25.5;;;12.4;;
69917;SDS011;57203;42.672;23.334;2024-03-22T00:15:27;25.5;;;12.2;;
69917;SDS011;57203;42.672;23.334;2024-03-22T00:16:28;29.0;;;12.6;;
69917;SDS011;57203;42.672;23.334;2024-03-22T00:17:27;22.3;;;12.4;;
69917;SDS011;57203;42.672;23.334;2024-03-22T00:18:28;23.6;;;11.6;;
69917;SDS011;57203;42.672;23.334;2024-03-22T00:20:28;20.7;;;11.4;;
69917;SDS011;57203;42.672;23.334;2024-03-22T00:21:28;25.8;;;12.2;;
69917;SDS011;57203;42.672;23.334;2024-03-22T00:22:28;22.8;;;12.3;;
69917;SDS011;57203;42.672;23.334;2024-03-22T00:23:29;21.5;;;11.7;;
69917;SDS011;57203;42.672;23.334;2024-03-22T00:24:29;23.8;;;11.6;;
69917;SDS011;57203;42.672;23.334;2024-03-22T00:26:30;22.2;;;12.9;;
69917;SDS011;57203;42.672;23.334;2024-03-22T00:27:30;22.8;;;13.1;;
69917;SDS011;57203;42.672;23.334;2024-03-22T00:28:29;24.3;;;12.7;;
69917;SDS011;57203;42.672;23.334;2024-03-22T00:29:30;21.7;;;12.3;;
69917;SDS011;57203;42.672;23.334;2024-03-22T00:30:30;21.7;;;11.8;;
69917;SDS011;57203;42.672;23.334;2024-03-22T00:31:30;22.4;;;12.7;;
69917;SDS011;57203;42.672;23.334;2024-03-22T00:32:30;22.3;;;12.0;;
69917;SDS011;57203;42.672;23.334;2024-03-22T00:33:30;19.9;;;11.3;;
69917;SDS011;57203;42.672;23.334;2024-03-22T00:34:31;20.9;;;11.2;;
69917;SDS011;57203;42.672;23.334;2024-03-22T00:35:31;22.2;;;11.8;;
69917;SDS011;57203;42.672;23.334;2024-03-22T00:36:31;22.2;;;10.8;;
69917;SDS011;57203;42.672;23.334;2024-03-22T00:37:31;23.1;;;11.0;;
69917;SDS011;57203;42.672;23.334;2024-03-22T00:38:31;23.0;;;11.4;;
69917;SDS011;57203;42.672;23.334;2024-03-22T00:39:31;23.0;;;12.6;;
69917;SDS011;57203;42.672;23.334;2024-03-22T00:40:32;22.2;;;12.0;;
69917;SDS011;57203;42.672;23.334;2024-03-22T00:41:32;22.2;;;11.4;;
69917;SDS011;57203;42.672;23.334;2024-03-22T00:42:32;22.2;;;11.9;;
69917;SDS011;57203;42.672;23.334;2024-03-22T00:43:32;22.6;;;11.8;;
69917;SDS011;57203;42.672;23.334;2024-03-22T00:44:32;22.6;;;11.5;;
69917;SDS011;57203;42.672;23.334;2024-03-22T00:45:32;21.4;;;10.7;;
69917;SDS011;57203;42.672;23.334;2024-03-22T00:46:33;22.0;;;10.9;;
69917;SDS011;57203;42.672;23.334;2024-03-22T00:47:33;20.6;;;11.8;;
69917;SDS011;57203;42.672;23.334;2024-03-22T00:48:33;27.2;;;11.6;;
69917;SDS011;57203;42.672;23.334;2024-03-22T00:49:33;26.5;;;12.2;;
69917;SDS011;57203;42.672;23.334;2024-03-22T00:50:33;26.5;;;12.0;;
69917;SDS011;57203;42.672;23.334;2024-03-22T00:51:34;23.7;;;11.2;;
69917;SDS011;57203;42.672;23.334;2024-03-22T00:52:34;25.8;;;11.6;;
69917;SDS011;57203;42.672;23.334;2024-03-22T00:53:34;24.8;;;12.5;;
69917;SDS011;57203;42.672;23.334;2024-03-22T00:54:34;22.3;;;12.0;;
69917;SDS011;57203;42.672;23.334;2024-03-22T00:55:34;22.3;;;11.0;;
69917;SDS011;57203;42.672;23.334;2024-03-22T00:56:34;20.9;;;10.8;;
69917;SDS011;57203;42.672;23.334;2024-03-22T00:57:35;22.3;;;10.5;;
69917;SDS011;57203;42.672;23.334;2024-03-22T00:58:35;19.8;;;11.2;;
69917;SDS011;57203;42.672;23.334;2024-03-22T00:59:35;23.1;;;11.5;;
69917;SDS011;57203;42.672;23.334;2024-03-22T01:00:35;21.7;;;11.6;;
69917;SDS011;57203;42.672;23.334;2024-03-22T01:01:35;21.7;;;19.7;;
69917;SDS011;57203;42.672;23.334;2024-03-22T01:02:35;65.7;;;14.0;;
69917;SDS011;57203;42.672;23.334;2024-03-22T01:03:36;38.6;;;14.3;;
69917;SDS011;57203;42.672;23.334;2024-03-22T01:04:36;40.6;;;17.7;;
69917;SDS011;57203;42.672;23.334;2024-03-22T01:05:36;49.8;;;11.6;;
69917;SDS011;57203;42.672;23.334;2024-03-22T01:06:36;22.9;;;10.6;;
69917;SDS011;57203;42.672;23.334;2024-03-22T01:07:37;22.9;;;10.0;;
69917;SDS011;57203;42.672;23.334;2024-03-22T01:08:36;19.5;;;10.8;;
69917;SDS011;57203;42.672;23.334;2024-03-22T01:09:37;21.5;;;10.9;;
69917;SDS011;57203;42.672;23.334;2024-03-22T01:10:37;21.5;;;9.4;;
69917;SDS011;57203;42.672;23.334;2024-03-22T01:11:37;19.8;;;10.4;;
69917;SDS011;57203;42.672;23.334;2024-03-22T01:12:37;22.4;;;10.8;;
69917;SDS011;57203;42.672;23.334;2024-03-22T01:13:37;21.1;;;10.0;;
69917;SDS011;57203;42.672;23.334;2024-03-22T01:14:38;17.8;;;10.3;;
69917;SDS011;57203;42.672;23.334;2024-03-22T01:15:38;20.2;;;9.8;;
69917;SDS011;57203;42.672;23.334;2024-03-22T01:16:38;20.0;;;9.5;;
69917;SDS011;57203;42.672;23.334;2024-03-22T01:17:38;18.1;;;9.3;;
69917;SDS011;57203;42.672;23.334;2024-03-22T01:18:38;23.0;;;10.1;;
69917;SDS011;57203;42.672;23.334;2024-03-22T01:19:38;23.0;;;10.3;;
69917;SDS011;57203;42.672;23.334;2024-03-22T01:20:39;20.3;;;10.1;;
69917;SDS011;57203;42.672;23.334;2024-03-22T01:21:39;20.3;;;10.0;;
69917;SDS011;57203;42.672;23.334;2024-03-22T01:22:39;17.9;;;10.4;;
69917;SDS011;57203;42.672;23.334;2024-03-22T01:23:39;17.9;;;10.8;;
69917;SDS011;57203;42.672;23.334;2024-03-22T01:24:39;21.9;;;11.8;;
69917;SDS011;57203;42.672;23.334;2024-03-22T01:25:40;21.9;;;11.5;;
69917;SDS011;57203;42.672;23.334;2024-03-22T01:26:40;25.7;;;10.8;;
69917;SDS011;57203;42.672;23.334;2024-03-22T01:27:40;27.8;;;11.8;;
69917;SDS011;57203;42.672;23.334;2024-03-22T01:28:40;27.8;;;10.1;;
69917;SDS011;57203;42.672;23.334;2024-03-22T01:29:40;21.2;;;10.2;;
69917;SDS011;57203;42.672;23.334;2024-03-22T01:30:40;18.5;;;10.3;;
69917;SDS011;57203;42.672;23.334;2024-03-22T01:31:41;18.5;;;10.5;;
69917;SDS011;57203;42.672;23.334;2024-03-22T01:32:41;18.9;;;9.8;;
69917;SDS011;57203;42.672;23.334;2024-03-22T01:33:41;18.9;;;10.6;;
69917;SDS011;57203;42.672;23.334;2024-03-22T01:34:41;18.0;;;11.0;;
69917;SDS011;57203;42.672;23.334;2024-03-22T01:35:41;21.8;;;10.3;;
69917;SDS011;57203;42.672;23.334;2024-03-22T01:36:41;19.2;;;9.5;;
69917;SDS011;57203;42.672;23.334;2024-03-22T01:37:42;16.4;;;9.7;;
69917;SDS011;57203;42.672;23.334;2024-03-22T01:38:42;19.3;;;9.6;;
69917;SDS011;57203;42.672;23.334;2024-03-22T01:39:42;21.4;;;9.7;;
69917;SDS011;57203;42.672;23.334;2024-03-22T01:40:42;25.5;;;8.8;;
69917;SDS011;57203;42.672;23.334;2024-03-22T01:41:43;17.0;;;9.5;;
69917;SDS011;57203;42.672;23.334;2024-03-22T01:42:43;16.1;;;10.4;;
69917;SDS011;57203;42.672;23.334;2024-03-22T01:43:43;17.6;;;8.6;;
69917;SDS011;57203;42.672;23.334;2024-03-22T01:44:43;16.7;;;10.1;;
69917;SDS011;57203;42.672;23.334;2024-03-22T01:45:43;19.2;;;10.4;;
69917;SDS011;57203;42.672;23.334;2024-03-22T01:46:44;20.5;;;9.5;;
69917;SDS011;57203;42.672;23.334;2024-03-22T01:47:45;20.5;;;9.9;;
69917;SDS011;57203;42.672;23.334;2024-03-22T01:48:44;18.4;;;9.8;;
69917;SDS011;57203;42.672;23.334;2024-03-22T01:49:44;23.1;;;9.9;;
69917;SDS011;57203;42.672;23.334;2024-03-22T01:50:44;23.1;;;9.5;;
69917;SDS011;57203;42.672;23.334;2024-03-22T01:51:44;15.6;;;10.4;;
69917;SDS011;57203;42.672;23.334;2024-03-22T01:52:44;20.4;;;9.3;;
69917;SDS011;57203;42.672;23.334;2024-03-22T01:53:45;14.8;;;9.0;;
69917;SDS011;57203;42.672;23.334;2024-03-22T01:54:45;18.3;;;9.3;;
69917;SDS011;57203;42.672;23.334;2024-03-22T01:55:45;18.3;;;9.8;;
69917;SDS011;57203;42.672;23.334;2024-03-22T01:56:45;19.4;;;10.3;;
69917;SDS011;57203;42.672;23.334;2024-03-22T01:57:45;14.9;;;8.6;;
69917;SDS011;57203;42.672;23.334;2024-03-22T01:58:45;14.9;;;9.6;;
69917;SDS011;57203;42.672;23.334;2024-03-22T01:59:46;16.1;;;8.7;;
69917;SDS011;57203;42.672;23.334;2024-03-22T02:00:46;24.2;;;11.9;;
69917;SDS011;57203;42.672;23.334;2024-03-22T02:01:46;28.2;;;11.7;;
69917;SDS011;57203;42.672;23.334;2024-03-22T02:02:46;23.4;;;10.6;;
69917;SDS011;57203;42.672;23.334;2024-03-22T02:03:46;29.4;;;12.7;;
69917;SDS011;57203;42.672;23.334;2024-03-22T02:04:49;29.4;;;14.6;;
69917;SDS011;57203;42.672;23.334;2024-03-22T02:05:47;34.8;;;14.7;;
69917;SDS011;57203;42.672;23.334;2024-03-22T02:06:47;42.8;;;13.1;;
69917;SDS011;57203;42.672;23.334;2024-03-22T02:07:47;35.7;;;12.3;;
69917;SDS011;57203;42.672;23.334;2024-03-22T02:08:47;33.1;;;12.0;;
69917;SDS011;57203;42.672;23.334;2024-03-22T02:10:48;29.5;;;10.2;;
69917;SDS011;57203;42.672;23.334;2024-03-22T02:11:48;25.6;;;10.6;;
69917;SDS011;57203;42.672;23.334;2024-03-22T02:12:48;27.1;;;9.1;;
69917;SDS011;57203;42.672;23.334;2024-03-22T02:13:48;19.6;;;10.4;;
69917;SDS011;57203;42.672;23.334;2024-03-22T02:14:50;19.6;;;11.0;;
69917;SDS011;57203;42.672;23.334;2024-03-22T02:15:49;20.1;;;9.9;;
69917;SDS011;57203;42.672;23.334;2024-03-22T02:16:49;19.0;;;10.1;;
69917;SDS011;57203;42.672;23.334;2024-03-22T02:17:49;24.4;;;11.6;;
69917;SDS011;57203;42.672;23.334;2024-03-22T02:18:49;21.9;;;10.1;;
69917;SDS011;57203;42.672;23.334;2024-03-22T02:19:49;21.9;;;10.6;;
69917;SDS011;57203;42.672;23.334;2024-03-22T02:20:49;25.5;;;9.8;;
69917;SDS011;57203;42.672;23.334;2024-03-22T02:22:50;21.5;;;9.9;;
69917;SDS011;57203;42.672;23.334;2024-03-22T02:23:50;21.5;;;9.5;;
69917;SDS011;57203;42.672;23.334;2024-03-22T02:24:50;23.7;;;9.3;;
69917;SDS011;57203;42.672;23.334;2024-03-22T02:25:50;18.7;;;9.5;;
69917;SDS011;57203;42.672;23.334;2024-03-22T02:26:50;18.9;;;10.1;;
69917;SDS011;57203;42.672;23.334;2024-03-22T02:27:51;19.3;;;11.5;;
69917;SDS011;57203;42.672;23.334;2024-03-22T02:28:51;19.3;;;13.3;;
69917;SDS011;57203;42.672;23.334;2024-03-22T02:29:51;27.7;;;12.3;;
69917;SDS011;57203;42.672;23.334;2024-03-22T02:30:51;22.7;;;10.3;;
69917;SDS011;57203;42.672;23.334;2024-03-22T02:31:51;17.2;;;9.3;;
69917;SDS011;57203;42.672;23.334;2024-03-22T02:32:52;17.2;;;8.8;;
69917;SDS011;57203;42.672;23.334;2024-03-22T02:33:52;17.0;;;9.8;;
69917;SDS011;57203;42.672;23.334;2024-03-22T02:34:52;16.3;;;9.3;;
69917;SDS011;57203;42.672;23.334;2024-03-22T02:35:52;17.2;;;10.3;;
69917;SDS011;57203;42.672;23.334;2024-03-22T02:36:52;18.6;;;9.6;;
69917;SDS011;57203;42.672;23.334;2024-03-22T02:37:53;22.5;;;9.4;;
69917;SDS011;57203;42.672;23.334;2024-03-22T02:38:53;23.4;;;12.2;;
69917;SDS011;57203;42.672;23.334;2024-03-22T02:39:53;24.3;;;11.4;;
69917;SDS011;57203;42.672;23.334;2024-03-22T02:40:53;19.1;;;10.6;;
69917;SDS011;57203;42.672;23.334;2024-03-22T02:41:53;16.7;;;10.1;;
69917;SDS011;57203;42.672;23.334;2024-03-22T02:42:53;16.7;;;10.7;;
69917;SDS011;57203;42.672;23.334;2024-03-22T02:43:54;21.0;;;10.6;;
69917;SDS011;57203;42.672;23.334;2024-03-22T02:44:54;20.4;;;11.2;;
69917;SDS011;57203;42.672;23.334;2024-03-22T02:45:54;20.4;;;11.1;;
69917;SDS011;57203;42.672;23.334;2024-03-22T02:46:54;26.7;;;12.4;;
69917;SDS011;57203;42.672;23.334;2024-03-22T02:47:54;21.5;;;11.6;;
69917;SDS011;57203;42.672;23.334;2024-03-22T02:48:54;28.1;;;11.4;;
69917;SDS011;57203;42.672;23.334;2024-03-22T02:49:55;21.0;;;10.4;;
69917;SDS011;57203;42.672;23.334;2024-03-22T02:50:55;21.3;;;11.3;;
69917;SDS011;57203;42.672;23.334;2024-03-22T02:51:55;23.9;;;10.8;;
69917;SDS011;57203;42.672;23.334;2024-03-22T02:52:55;19.0;;;10.1;;
69917;SDS011;57203;42.672;23.334;2024-03-22T02:53:55;18.9;;;10.6;;
69917;SDS011;57203;42.672;23.334;2024-03-22T02:54:56;18.9;;;11.1;;
69917;SDS011;57203;42.672;23.334;2024-03-22T02:56:56;22.9;;;10.7;;
69917;SDS011;57203;42.672;23.334;2024-03-22T02:57:56;22.9;;;11.3;;
69917;SDS011;57203;42.672;23.334;2024-03-22T02:58:56;22.0;;;10.5;;
69917;SDS011;57203;42.672;23.334;2024-03-22T02:59:56;18.6;;;11.4;;
69917;SDS011;57203;42.672;23.334;2024-03-22T03:00:57;22.7;;;10.7;;
69917;SDS011;57203;42.672;23.334;2024-03-22T03:01:57;23.4;;;11.7;;
69917;SDS011;57203;42.672;23.334;2024-03-22T03:02:57;27.8;;;12.2;;
69917;SDS011;57203;42.672;23.334;2024-03-22T03:03:57;30.1;;;11.7;;
69917;SDS011;57203;42.672;23.334;2024-03-22T03:04:57;22.9;;;12.3;;
69917;SDS011;57203;42.672;23.334;2024-03-22T03:05:57;23.2;;;11.8;;
69917;SDS011;57203;42.672;23.334;2024-03-22T03:06:58;25.4;;;11.7;;
69917;SDS011;57203;42.672;23.334;2024-03-22T03:07:58;26.5;;;11.5;;
69917;SDS011;57203;42.672;23.334;2024-03-22T03:08:58;20.4;;;11.4;;
69917;SDS011;57203;42.672;23.334;2024-03-22T03:09:58;20.4;;;12.0;;
69917;SDS011;57203;42.672;23.334;2024-03-22T03:10:58;26.5;;;18.0;;
69917;SDS011;57203;42.672;23.334;2024-03-22T03:11:58;34.3;;;17.0;;
69917;SDS011;57203;42.672;23.334;2024-03-22T03:12:59;31.2;;;19.6;;
69917;SDS011;57203;42.672;23.334;2024-03-22T03:13:59;36.0;;;16.1;;
69917;SDS011;57203;42.672;23.334;2024-03-22T03:14:59;30.3;;;15.9;;
69917;SDS011;57203;42.672;23.334;2024-03-22T03:15:59;30.3;;;14.8;;
69917;SDS011;57203;42.672;23.334;2024-03-22T03:16:59;26.8;;;13.9;;
69917;SDS011;57203;42.672;23.334;2024-03-22T03:18:00;25.1;;;13.8;;
69917;SDS011;57203;42.672;23.334;2024-03-22T03:19:00;25.1;;;14.2;;
69917;SDS011;57203;42.672;23.334;2024-03-22T03:20:00;33.0;;;13.3;;
69917;SDS011;57203;42.672;23.334;2024-03-22T03:21:00;33.0;;;14.1;;
69917;SDS011;57203;42.672;23.334;2024-03-22T03:22:00;28.7;;;13.9;;
69917;SDS011;57203;42.672;23.334;2024-03-22T03:23:00;26.4;;;14.2;;
69917;SDS011;57203;42.672;23.334;2024-03-22T03:24:01;26.4;;;14.1;;
69917;SDS011;57203;42.672;23.334;2024-03-22T03:25:01;27.1;;;14.4;;
69917;SDS011;57203;42.672;23.334;2024-03-22T03:27:01;28.0;;;14.6;;
69917;SDS011;57203;42.672;23.334;2024-03-22T03:28:01;29.0;;;16.4;;
69917;SDS011;57203;42.672;23.334;2024-03-22T03:29:01;32.5;;;14.0;;
69917;SDS011;57203;42.672;23.334;2024-03-22T03:30:02;28.1;;;14.4;;
69917;SDS011;57203;42.672;23.334;2024-03-22T03:31:02;33.3;;;15.3;;
69917;SDS011;57203;42.672;23.334;2024-03-22T03:32:02;31.9;;;13.7;;
69917;SDS011;57203;42.672;23.334;2024-03-22T03:33:02;30.9;;;14.0;;
69917;SDS011;57203;42.672;23.334;2024-03-22T03:34:02;25.1;;;12.1;;
69917;SDS011;57203;42.672;23.334;2024-03-22T03:35:03;25.1;;;11.4;;
69917;SDS011;57203;42.672;23.334;2024-03-22T03:36:03;22.7;;;12.1;;
69917;SDS011;57203;42.672;23.334;2024-03-22T03:37:03;22.7;;;13.0;;
69917;SDS011;57203;42.672;23.334;2024-03-22T03:38:03;22.2;;;11.8;;
69917;SDS011;57203;42.672;23.334;2024-03-22T03:39:03;29.0;;;12.7;;
69917;SDS011;57203;42.672;23.334;2024-03-22T03:40:04;18.5;;;10.7;;
69917;SDS011;57203;42.672;23.334;2024-03-22T03:41:03;18.5;;;11.2;;
69917;SDS011;57203;42.672;23.334;2024-03-22T03:42:04;20.5;;;10.4;;
69917;SDS011;57203;42.672;23.334;2024-03-22T03:43:04;19.1;;;9.9;;
69917;SDS011;57203;42.672;23.334;2024-03-22T03:44:04;18.5;;;10.2;;
69917;SDS011;57203;42.672;23.334;2024-03-22T03:45:04;21.1;;;10.6;;
69917;SDS011;57203;42.672;23.334;2024-03-22T03:46:04;19.1;;;10.2;;
69917;SDS011;57203;42.672;23.334;2024-03-22T03:47:05;19.1;;;10.6;;
69917;SDS011;57203;42.672;23.334;2024-03-22T03:48:05;25.5;;;10.8;;
69917;SDS011;57203;42.672;23.334;2024-03-22T03:49:05;25.5;;;11.3;;
69917;SDS011;57203;42.672;23.334;2024-03-22T03:50:05;17.3;;;11.0;;
69917;SDS011;57203;42.672;23.334;2024-03-22T03:52:05;21.3;;;11.5;;
69917;SDS011;57203;42.672;23.334;2024-03-22T03:53:05;25.8;;;10.7;;
69917;SDS011;57203;42.672;23.334;2024-03-22T03:54:06;23.2;;;10.6;;
69917;SDS011;57203;42.672;23.334;2024-03-22T03:55:06;22.8;;;11.4;;
69917;SDS011;57203;42.672;23.334;2024-03-22T03:56:06;25.7;;;10.8;;
69917;SDS011;57203;42.672;23.334;2024-03-22T03:57:06;19.9;;;10.6;;
69917;SDS011;57203;42.672;23.334;2024-03-22T03:58:06;19.9;;;10.2;;
69917;SDS011;57203;42.672;23.334;2024-03-22T03:59:06;22.5;;;12.1;;
69917;SDS011;57203;42.672;23.334;2024-03-22T04:00:07;22.5;;;11.7;;
69917;SDS011;57203;42.672;23.334;2024-03-22T04:01:07;18.3;;;11.0;;
69917;SDS011;57203;42.672;23.334;2024-03-22T04:02:07;18.3;;;10.7;;
69917;SDS011;57203;42.672;23.334;2024-03-22T04:03:07;18.6;;;11.2;;
69917;SDS011;57203;42.672;23.334;2024-03-22T04:05:08;25.8;;;10.6;;
69917;SDS011;57203;42.672;23.334;2024-03-22T04:06:08;23.0;;;10.8;;
69917;SDS011;57203;42.672;23.334;2024-03-22T04:07:08;16.9;;;9.9;;
69917;SDS011;57203;42.672;23.334;2024-03-22T04:08:08;18.8;;;9.4;;
69917;SDS011;57203;42.672;23.334;2024-03-22T04:10:09;17.3;;;9.2;;
69917;SDS011;57203;42.672;23.334;2024-03-22T04:11:09;17.3;;;9.5;;
69917;SDS011;57203;42.672;23.334;2024-03-22T04:13:09;15.4;;;8.6;;
69917;SDS011;57203;42.672;23.334;2024-03-22T04:14:09;15.4;;;8.8;;
69917;SDS011;57203;42.672;23.334;2024-03-22T04:15:09;15.5;;;8.2;;
69917;SDS011;57203;42.672;23.334;2024-03-22T04:16:09;15.5;;;8.7;;
69917;SDS011;57203;42.672;23.334;2024-03-22T04:17:10;18.7;;;8.8;;
69917;SDS011;57203;42.672;23.334;2024-03-22T04:18:10;15.8;;;7.7;;
69917;SDS011;57203;42.672;23.334;2024-03-22T04:19:10;17.6;;;8.7;;
69917;SDS011;57203;42.672;23.334;2024-03-22T04:20:11;15.6;;;7.7;;
69917;SDS011;57203;42.672;23.334;2024-03-22T04:21:10;15.6;;;8.6;;
69917;SDS011;57203;42.672;23.334;2024-03-22T04:22:11;17.0;;;8.1;;
69917;SDS011;57203;42.672;23.334;2024-03-22T04:23:11;17.0;;;8.2;;
69917;SDS011;57203;42.672;23.334;2024-03-22T04:24:11;13.9;;;7.1;;
69917;SDS011;57203;42.672;23.334;2024-03-22T04:25:11;15.9;;;8.6;;
69917;SDS011;57203;42.672;23.334;2024-03-22T04:26:11;15.9;;;7.2;;
69917;SDS011;57203;42.672;23.334;2024-03-22T04:27:11;18.9;;;8.2;;
69917;SDS011;57203;42.672;23.334;2024-03-22T04:28:12;18.9;;;7.2;;
69917;SDS011;57203;42.672;23.334;2024-03-22T04:29:12;15.3;;;7.0;;
69917;SDS011;57203;42.672;23.334;2024-03-22T04:30:12;14.3;;;6.5;;
69917;SDS011;57203;42.672;23.334;2024-03-22T04:31:12;13.0;;;6.9;;
69917;SDS011;57203;42.672;23.334;2024-03-22T04:32:12;12.4;;;7.3;;
69917;SDS011;57203;42.672;23.334;2024-03-22T04:33:12;17.5;;;6.7;;
69917;SDS011;57203;42.672;23.334;2024-03-22T04:34:13;17.5;;;6.6;;
69917;SDS011;57203;42.672;23.334;2024-03-22T04:35:13;13.0;;;6.7;;
69917;SDS011;57203;42.672;23.334;2024-03-22T04:36:13;11.6;;;7.0;;
69917;SDS011;57203;42.672;23.334;2024-03-22T04:37:13;11.6;;;7.1;;
69917;SDS011;57203;42.672;23.334;2024-03-22T04:38:13;14.6;;;7.2;;
69917;SDS011;57203;42.672;23.334;2024-03-22T04:39:13;14.6;;;6.7;;
69917;SDS011;57203;42.672;23.334;2024-03-22T04:40:14;14.0;;;7.0;;
69917;SDS011;57203;42.672;23.334;2024-03-22T04:41:14;11.9;;;6.7;;
69917;SDS011;57203;42.672;23.334;2024-03-22T04:42:14;9.9;;;6.0;;
69917;SDS011;57203;42.672;23.334;2024-03-22T04:43:14;9.9;;;6.7;;
69917;SDS011;57203;42.672;23.334;2024-03-22T04:44:14;12.0;;;6.1;;
69917;SDS011;57203;42.672;23.334;2024-03-22T04:45:14;12.0;;;6.5;;
69917;SDS011;57203;42.672;23.334;2024-03-22T04:46:15;12.7;;;6.9;;
69917;SDS011;57203;42.672;23.334;2024-03-22T04:47:15;13.0;;;6.8;;
69917;SDS011;57203;42.672;23.334;2024-03-22T04:48:16;13.5;;;7.6;;
69917;SDS011;57203;42.672;23.334;2024-03-22T04:49:15;13.2;;;6.7;;
69917;SDS011;57203;42.672;23.334;2024-03-22T04:50:15;15.4;;;7.0;;
69917;SDS011;57203;42.672;23.334;2024-03-22T04:51:15;12.4;;;6.9;;
69917;SDS011;57203;42.672;23.334;2024-03-22T04:52:16;13.5;;;8.7;;
69917;SDS011;57203;42.672;23.334;2024-03-22T04:53:16;18.6;;;7.4;;
69917;SDS011;57203;42.672;23.334;2024-03-22T04:54:16;14.2;;;7.2;;
69917;SDS011;57203;42.672;23.334;2024-03-22T04:56:16;12.5;;;20.8;;
69917;SDS011;57203;42.672;23.334;2024-03-22T04:57:16;38.2;;;35.4;;
69917;SDS011;57203;42.672;23.334;2024-03-22T04:58:17;70.7;;;19.0;;
69917;SDS011;57203;42.672;23.334;2024-03-22T04:59:17;35.4;;;19.1;;
69917;SDS011;57203;42.672;23.334;2024-03-22T05:00:17;38.0;;;15.9;;
69917;SDS011;57203;42.672;23.334;2024-03-22T05:01:17;34.4;;;17.0;;
69917;SDS011;57203;42.672;23.334;2024-03-22T05:02:17;25.0;;;12.9;;
69917;SDS011;57203;42.672;23.334;2024-03-22T05:03:18;25.0;;;12.3;;
69917;SDS011;57203;42.672;23.334;2024-03-22T05:04:18;23.7;;;9.1;;
69917;SDS011;57203;42.672;23.334;2024-03-22T05:05:18;19.2;;;11.2;;
69917;SDS011;57203;42.672;23.334;2024-03-22T05:06:18;16.0;;;8.6;;
69917;SDS011;57203;42.672;23.334;2024-03-22T05:07:18;16.0;;;10.6;;
69917;SDS011;57203;42.672;23.334;2024-03-22T05:08:18;20.1;;;9.5;;
69917;SDS011;57203;42.672;23.334;2024-03-22T05:09:19;17.3;;;8.7;;
69917;SDS011;57203;42.672;23.334;2024-03-22T05:10:19;16.4;;;8.6;;
69917;SDS011;57203;42.672;23.334;2024-03-22T05:11:19;17.3;;;10.3;;
69917;SDS011;57203;42.672;23.334;2024-03-22T05:12:19;19.9;;;9.7;;
69917;SDS011;57203;42.672;23.334;2024-03-22T05:13:19;14.5;;;7.9;;
69917;SDS011;57203;42.672;23.334;2024-03-22T05:14:21;14.5;;;8.1;;
69917;SDS011;57203;42.672;23.334;2024-03-22T05:15:20;17.5;;;7.7;;
69917;SDS011;57203;42.672;23.334;2024-03-22T05:16:20;14.4;;;8.3;;
69917;SDS011;57203;42.672;23.334;2024-03-22T05:17:20;21.1;;;8.0;;
69917;SDS011;57203;42.672;23.334;2024-03-22T05:18:20;21.2;;;8.2;;
69917;SDS011;57203;42.672;23.334;2024-03-22T05:19:20;17.4;;;7.9;;
69917;SDS011;57203;42.672;23.334;2024-03-22T05:20:21;16.5;;;8.2;;
69917;SDS011;57203;42.672;23.334;2024-03-22T05:21:21;13.2;;;7.2;;
69917;SDS011;57203;42.672;23.334;2024-03-22T05:22:21;15.9;;;7.9;;
69917;SDS011;57203;42.672;23.334;2024-03-22T05:23:21;17.4;;;8.0;;
69917;SDS011;57203;42.672;23.334;2024-03-22T05:24:21;17.4;;;7.5;;
69917;SDS011;57203;42.672;23.334;2024-03-22T05:25:21;15.8;;;7.7;;
69917;SDS011;57203;42.672;23.334;2024-03-22T05:26:22;17.7;;;7.6;;
69917;SDS011;57203;42.672;23.334;2024-03-22T05:27:22;13.5;;;7.2;;
69917;SDS011;57203;42.672;23.334;2024-03-22T05:28:22;13.7;;;7.9;;
69917;SDS011;57203;42.672;23.334;2024-03-22T05:29:22;16.3;;;8.0;;
69917;SDS011;57203;42.672;23.334;2024-03-22T05:30:22;19.0;;;8.6;;
69917;SDS011;57203;42.672;23.334;2024-03-22T05:31:22;13.5;;;8.1;;
69917;SDS011;57203;42.672;23.334;2024-03-22T05:32:23;13.5;;;7.8;;
69917;SDS011;57203;42.672;23.334;2024-03-22T05:33:23;15.8;;;8.5;;
69917;SDS011;57203;42.672;23.334;2024-03-22T05:34:23;18.8;;;7.5;;
69917;SDS011;57203;42.672;23.334;2024-03-22T05:35:23;16.4;;;8.2;;
69917;SDS011;57203;42.672;23.334;2024-03-22T05:36:23;16.4;;;8.0;;
69917;SDS011;57203;42.672;23.334;2024-03-22T05:37:24;20.9;;;8.1;;
69917;SDS011;57203;42.672;23.334;2024-03-22T05:38:24;18.7;;;7.8;;
69917;SDS011;57203;42.672;23.334;2024-03-22T05:39:24;18.0;;;7.3;;
69917;SDS011;57203;42.672;23.334;2024-03-22T05:40:24;15.9;;;8.0;;
69917;SDS011;57203;42.672;23.334;2024-03-22T05:41:24;14.1;;;7.5;;
69917;SDS011;57203;42.672;23.334;2024-03-22T05:42:24;16.7;;;7.7;;
69917;SDS011;57203;42.672;23.334;2024-03-22T05:44:25;19.8;;;8.4;;
69917;SDS011;57203;42.672;23.334;2024-03-22T05:45:25;16.3;;;7.5;;
69917;SDS011;57203;42.672;23.334;2024-03-22T05:46:25;14.7;;;8.1;;
69917;SDS011;57203;42.672;23.334;2024-03-22T05:47:25;16.1;;;7.5;;
69917;SDS011;57203;42.672;23.334;2024-03-22T05:48:25;13.0;;;7.2;;
69917;SDS011;57203;42.672;23.334;2024-03-22T05:49:26;13.0;;;8.5;;
69917;SDS011;57203;42.672;23.334;2024-03-22T05:50:26;24.0;;;8.4;;
69917;SDS011;57203;42.672;23.334;2024-03-22T05:51:26;16.3;;;8.9;;
69917;SDS011;57203;42.672;23.334;2024-03-22T05:52:26;16.3;;;8.5;;
69917;SDS011;57203;42.672;23.334;2024-03-22T05:53:26;18.6;;;8.8;;
69917;SDS011;57203;42.672;23.334;2024-03-22T05:54:27;17.4;;;8.6;;
69917;SDS011;57203;42.672;23.334;2024-03-22T05:56:27;21.4;;;13.3;;
69917;SDS011;57203;42.672;23.334;2024-03-22T05:57:27;19.5;;;8.9;;
69917;SDS011;57203;42.672;23.334;2024-03-22T05:58:27;19.5;;;10.7;;
69917;SDS011;57203;42.672;23.334;2024-03-22T05:59:27;40.3;;;14.7;;
69917;SDS011;57203;42.672;23.334;2024-03-22T06:00:28;27.4;;;12.8;;
69917;SDS011;57203;42.672;23.334;2024-03-22T06:01:28;27.4;;;10.6;;
69917;SDS011;57203;42.672;23.334;2024-03-22T06:02:28;17.3;;;9.4;;
69917;SDS011;57203;42.672;23.334;2024-03-22T06:03:28;19.5;;;10.6;;
69917;SDS011;57203;42.672;23.334;2024-03-22T06:04:28;19.5;;;9.8;;
69917;SDS011;57203;42.672;23.334;2024-03-22T06:06:29;17.4;;;8.9;;
69917;SDS011;57203;42.672;23.334;2024-03-22T06:07:29;17.4;;;8.4;;
69917;SDS011;57203;42.672;23.334;2024-03-22T06:08:29;17.2;;;8.9;;
69917;SDS011;57203;42.672;23.334;2024-03-22T06:09:29;12.7;;;8.3;;
69917;SDS011;57203;42.672;23.334;2024-03-22T06:10:29;12.7;;;9.1;;
69917;SDS011;57203;42.672;23.334;2024-03-22T06:11:30;15.3;;;9.2;;
69917;SDS011;57203;42.672;23.334;2024-03-22T06:12:30;19.2;;;7.7;;
69917;SDS011;57203;42.672;23.334;2024-03-22T06:13:30;15.0;;;8.4;;
69917;SDS011;57203;42.672;23.334;2024-03-22T06:15:30;22.0;;;9.0;;